Velarde, New Mexico
Current Conditions -  °F | °C
As of 8:35 PM on Friday 19 Dec 2014 (Local Time) from KLAM Reporting Station
Clear Clear  
Wind Chill: 28°   Ceiling: Unl
Heat Index: 28°   Visibility: 10mi
Dew Point: 19°   Wind: 0mph
Humidity: 71%   Direction: NA
Pressure: 30.16"   Gusts: NA
Location:  36.16°N, 105.97°W
Report Text: KLAM 200335Z AUTO 00000KT 10SM CLR M02/M07 A3016 RMK AO2 T10231070
Loading
Personal Weather Stations






























Interactive Weather Map New forecast layout! Learn more

10-Day Weather Forecast

Advertisements
Track Severe Weather on mobile